• Join FlightAware (Why Join?)
  • Login
  • US Flag 
06:57PM EST


 

Airport Tracker/Info


-or-


 

Live Flight TrackerFlight Track Log ✈ UCA596 ✈ 09-Sep-2013 ✈ KIAD - KBGM

Flight Track Log - Related Links

Times and Time Zones

All times are in EDT time to prevent confusion due to time zone crossing. See the UCA596 flight status page for this flight to view local times or setup timezone preferences in your user account.

Time Position Orientation Groundspeed Altitude Reporting Facility
EDT Latitude Longitude Course Direction KTS MPH feet Rate Location/Type
01:09PM 38.9667 -77.5167 322° Northwest 176 203 2,100  Level Potomac TRACON
01:10PM 39.0167 -77.5667 322° Northwest 201 231 3,400 1,440 Climbing Potomac TRACON
01:11PM 39.0667 -77.6000 333° Northwest 205 236 5,000 1,560 Climbing Potomac TRACON
01:12PM 39.1167 -77.6000 360° North 194 223 6,600 1,500 Climbing Potomac TRACON
01:13PM 39.1667 -77.6000 360° North 192 221 7,900 1,260 Climbing Potomac TRACON
01:14PM 39.2167 -77.6000 360° North 193 222 9,100 1,200 Climbing Potomac TRACON
01:16PM 39.3072 -77.6086 356° North 201 231 11,300 1,200 Climbing Washington Center
01:17PM 39.3661 -77.5781 22° Northeast 206 237 12,500 1,140 Climbing Washington Center
01:18PM 39.4269 -77.5503 19° North 212 244 13,700 1,200 Climbing Washington Center
01:19PM 39.4856 -77.5250 18° North 217 250 14,900 1,080 Climbing Washington Center
01:20PM 39.5464 -77.4969 20° North 222 255 15,900 600 Climbing Washington Center
01:21PM 39.6428 -77.4522 20° North 258 297 16,300 720 Climbing New York Center
01:22PM 39.7097 -77.4503 North 245 282 17,600 900 Climbing New York Center
01:23PM 39.7683 -77.4450 North 232 267 18,200 600 Climbing New York Center
01:24PM 39.8350 -77.4083 23° Northeast 232 267 18,900 360 Climbing New York Center
01:25PM 39.8972 -77.3761 22° Northeast 243 280 19,000  Climbing New York Center
01:26PM 39.9747 -77.3347 22° Northeast 265 305 19,000  Level New York Center
01:27PM 40.0392 -77.3003 22° Northeast 270 311 19,000  Level New York Center
01:28PM 40.1183 -77.2614 21° North 275 316 19,000  Level New York Center
01:29PM 40.1850 -77.2242 23° Northeast 280 322 19,000  Level New York Center
01:30PM 40.2644 -77.1825 22° Northeast 280 322 19,000  Level New York Center
01:31PM 40.3289 -77.1478 22° Northeast 280 322 19,000  Level New York Center
01:32PM 40.4083 -77.1058 22° Northeast 280 322 19,000  Level New York Center
01:33PM 40.4747 -77.0711 22° Northeast 280 322 19,000  Level New York Center
01:34PM 40.5542 -77.0292 22° Northeast 275 316 19,000 -300 Level New York Center
01:35PM 40.6186 -76.9914 24° Northeast 280 322 18,400 -780 Descending New York Center
01:36PM 40.7067 -76.9444 22° Northeast 291 335 17,500 -780 Descending New York Center
01:37PM 40.7772 -76.9069 22° Northeast 300 345 16,900 -300 Descending New York Center
01:38PM 40.8631 -76.8597 23° Northeast 300 345 16,900  Level New York Center
01:39PM 40.9294 -76.8244 22° Northeast 295 339 16,900  Level New York Center
01:40PM 41.0089 -76.7822 22° Northeast 289 333 16,900  Level New York Center
01:41PM 41.0817 -76.7417 23° Northeast 284 327 16,900  Level New York Center
01:42PM 41.1544 -76.7014 23° Northeast 278 320 16,900  Level New York Center
01:43PM 41.2211 -76.6631 23° Northeast 283 326 16,900  Level New York Center
01:44PM 41.2981 -76.6200 23° Northeast 278 320 16,900  Level New York Center
01:45PM 41.3711 -76.5794 23° Northeast 278 320 16,900  Level New York Center
01:46PM 41.4439 -76.5386 23° Northeast 278 320 16,900 -480 Level New York Center
01:47PM 41.5122 -76.5028 21° North 278 320 16,000 -960 Descending New York Center
01:48PM 41.5872 -76.4594 23° Northeast 286 329 15,000 -1,200 Descending New York Center
01:49PM 41.6731 -76.4083 24° Northeast 291 335 13,700 -1,200 Descending New York Center
01:50PM 41.7464 -76.3506 30° Northeast 296 341 12,700 -1,080 Descending New York Center
01:51PM 41.8178 -76.2925 31° Northeast 301 346 11,600 -1,140 Descending New York Center
01:52PM 41.8806 -76.2447 30° Northeast 301 346 10,500 -1,080 Descending New York Center
01:53PM 41.9497 -76.1864 32° Northeast 296 341 9,500 -1,200 Descending New York Center
01:54PM 42.0275 -76.1258 30° Northeast 296 341 8,200 -1,140 Descending New York Center
01:55PM 42.0881 -76.0775 31° Northeast 290 334 7,300 -1,020 Descending New York Center
01:56PM 42.1531 -76.0633 North 268 308 6,200 -1,140 Descending New York Center
01:57PM 42.2078 -76.0983 335° Northwest 219 252 5,100 -1,080 Descending New York Center
01:58PM 42.2581 -76.0914 North 201 231 4,100 -1,020 Descending New York Center
01:59PM 42.2650 -76.0275 82° East 133 153 3,100 -960 Descending New York Center
02:00PM 42.2350 -76.0025 148° Southeast 86 99 2,200 2,940 Descending New York Center
02:01PM 42.2281 -75.9683 105° East 86 99 9,000 6,780 Climbing New York Center
02:03PM 42.2000 -75.9667 North  Level FlightAware Approximate
02:10PM 42.2084 -75.9796 North  Level Estimated
02:11PM 42.2084 -75.9796 North  Level Estimated
02:12PM 42.2084 -75.9796 North  Level Estimated